メインページ
METAR-TAF:

METAR-TAF

空港 :

レオポール・セダール・サンゴール国際空港

ダカール, セネガル

緯度: 14-44N, 経度: 017-30W, 海抜: 27m

現時点の気象観測

当レポートは35分前の11:00(UTC)に作成
の風 4kt
気温 26°C
湿度 45%
気圧 1014 hPa
視程: 5000m
晴天
広範な塵

METAR: GOOY 141100Z 36004KT 5000 DU SKC 26/13 Q1014

時間: 11:35 (11:35 UTC)

予報

当レポートは6時間5分前の05:30(UTC)に作成
予報は14日の 06時(UTC)から 15日の 12時(UTC)まで有効
北/北東の風 8kt
視程10km以上
1,500メートル以下は雲なし、積乱雲なし

TAF: GOOY 140530Z 1406/1512 03008KT CAVOK

4,000以上の空港の気象観測と天気予報(METAR報とTAF報)

利用可能な観測所は地図上に黄色い丸と赤い丸で示す。

丸の上にカーソルを重ねると観測所名を参照できる。

次にクリックすると気象観測と天気予報を参照できる。

マップの切り替え:黒色「×」印の緑ボタンをクリックして拡大、「-」印の緑ボタンをクリックして縮小、緑色の三角印をクリックして隣りの地図に切り替え


METAR-TAF: